sensor_id;sensor_type;location;lat;lon;timestamp;temperature;humidity
2783;DHT22;1399;47.072;15.452;2023-01-10T00:01:39;10.60;61.80
2783;DHT22;1399;47.072;15.452;2023-01-10T00:04:05;10.60;61.90
2783;DHT22;1399;47.072;15.452;2023-01-10T00:06:30;10.60;62.00
2783;DHT22;1399;47.072;15.452;2023-01-10T00:08:56;10.60;61.90
2783;DHT22;1399;47.072;15.452;2023-01-10T00:11:22;10.60;61.90
2783;DHT22;1399;47.072;15.452;2023-01-10T00:14:07;10.60;61.90
2783;DHT22;1399;47.072;15.452;2023-01-10T00:16:33;10.60;61.90
2783;DHT22;1399;47.072;15.452;2023-01-10T00:18:59;10.60;61.90
2783;DHT22;1399;47.072;15.452;2023-01-10T00:21:25;10.60;61.90
2783;DHT22;1399;47.072;15.452;2023-01-10T00:23:53;10.60;61.90
2783;DHT22;1399;47.072;15.452;2023-01-10T00:26:18;10.60;62.00
2783;DHT22;1399;47.072;15.452;2023-01-10T00:28:44;10.60;62.00
2783;DHT22;1399;47.072;15.452;2023-01-10T00:31:10;10.60;61.90
2783;DHT22;1399;47.072;15.452;2023-01-10T00:33:36;10.60;61.90
2783;DHT22;1399;47.072;15.452;2023-01-10T00:36:04;10.60;61.90
2783;DHT22;1399;47.072;15.452;2023-01-10T00:38:32;10.50;61.70
2783;DHT22;1399;47.072;15.452;2023-01-10T00:40:58;10.60;61.90
2783;DHT22;1399;47.072;15.452;2023-01-10T00:43:24;10.50;61.80
2783;DHT22;1399;47.072;15.452;2023-01-10T00:46:08;10.60;61.90
2783;DHT22;1399;47.072;15.452;2023-01-10T00:48:35;10.50;61.80
2783;DHT22;1399;47.072;15.452;2023-01-10T00:51:01;10.50;61.80
2783;DHT22;1399;47.072;15.452;2023-01-10T00:53:27;10.50;61.80
2783;DHT22;1399;47.072;15.452;2023-01-10T00:55:54;10.60;61.90
2783;DHT22;1399;47.072;15.452;2023-01-10T00:58:20;10.60;62.00
2783;DHT22;1399;47.072;15.452;2023-01-10T01:00:46;10.60;62.00
2783;DHT22;1399;47.072;15.452;2023-01-10T01:03:15;10.50;61.80
2783;DHT22;1399;47.072;15.452;2023-01-10T01:05:42;10.50;61.90
2783;DHT22;1399;47.072;15.452;2023-01-10T01:08:10;10.50;61.80
2783;DHT22;1399;47.072;15.452;2023-01-10T01:10:36;10.50;61.90
2783;DHT22;1399;47.072;15.452;2023-01-10T01:13:09;10.50;61.90
2783;DHT22;1399;47.072;15.452;2023-01-10T01:15:35;10.50;61.80
2783;DHT22;1399;47.072;15.452;2023-01-10T01:18:01;10.50;61.80
2783;DHT22;1399;47.072;15.452;2023-01-10T01:20:28;10.50;61.90
2783;DHT22;1399;47.072;15.452;2023-01-10T01:22:54;10.50;61.90
2783;DHT22;1399;47.072;15.452;2023-01-10T01:25:19;10.50;61.80
2783;DHT22;1399;47.072;15.452;2023-01-10T01:27:45;10.50;61.80
2783;DHT22;1399;47.072;15.452;2023-01-10T01:30:11;10.50;61.80
2783;DHT22;1399;47.072;15.452;2023-01-10T01:32:38;10.50;61.80
2783;DHT22;1399;47.072;15.452;2023-01-10T01:35:05;10.50;61.80
2783;DHT22;1399;47.072;15.452;2023-01-10T01:37:31;10.50;61.80
2783;DHT22;1399;47.072;15.452;2023-01-10T01:39:58;10.50;61.70
2783;DHT22;1399;47.072;15.452;2023-01-10T01:42:29;10.50;61.70
2783;DHT22;1399;47.072;15.452;2023-01-10T01:48:00;10.50;61.50
2783;DHT22;1399;47.072;15.452;2023-01-10T01:50:42;10.50;61.40
2783;DHT22;1399;47.072;15.452;2023-01-10T01:53:33;10.50;61.40
2783;DHT22;1399;47.072;15.452;2023-01-10T01:59:01;10.50;61.20
2783;DHT22;1399;47.072;15.452;2023-01-10T02:01:30;10.50;61.20
2783;DHT22;1399;47.072;15.452;2023-01-10T02:04:04;10.50;61.30
2783;DHT22;1399;47.072;15.452;2023-01-10T02:06:31;10.50;61.30
2783;DHT22;1399;47.072;15.452;2023-01-10T02:09:10;10.40;61.10
2783;DHT22;1399;47.072;15.452;2023-01-10T02:11:40;10.40;61.00
2783;DHT22;1399;47.072;15.452;2023-01-10T02:14:07;10.40;60.60
2783;DHT22;1399;47.072;15.452;2023-01-10T02:16:34;10.50;60.10
2783;DHT22;1399;47.072;15.452;2023-01-10T02:19:01;10.50;59.70
2783;DHT22;1399;47.072;15.452;2023-01-10T02:29:25;10.50;56.30
2783;DHT22;1399;47.072;15.452;2023-01-10T02:32:34;10.50;55.60
2783;DHT22;1399;47.072;15.452;2023-01-10T02:38:20;10.50;54.40
2783;DHT22;1399;47.072;15.452;2023-01-10T02:43:23;10.60;53.80
2783;DHT22;1399;47.072;15.452;2023-01-10T02:46:19;10.60;53.40
2783;DHT22;1399;47.072;15.452;2023-01-10T02:48:53;10.60;53.00
2783;DHT22;1399;47.072;15.452;2023-01-10T02:51:22;10.60;52.80
2783;DHT22;1399;47.072;15.452;2023-01-10T02:54:09;10.60;52.70
2783;DHT22;1399;47.072;15.452;2023-01-10T03:05:30;10.70;51.80
2783;DHT22;1399;47.072;15.452;2023-01-10T03:11:07;10.70;51.20
2783;DHT22;1399;47.072;15.452;2023-01-10T03:13:50;10.70;50.90
2783;DHT22;1399;47.072;15.452;2023-01-10T03:16:19;10.70;50.60
2783;DHT22;1399;47.072;15.452;2023-01-10T03:18:50;10.70;51.00
2783;DHT22;1399;47.072;15.452;2023-01-10T03:21:19;10.70;50.20
2783;DHT22;1399;47.072;15.452;2023-01-10T03:23:48;10.70;49.60
2783;DHT22;1399;47.072;15.452;2023-01-10T03:26:19;10.80;49.60
2783;DHT22;1399;47.072;15.452;2023-01-10T03:28:51;10.70;48.90
2783;DHT22;1399;47.072;15.452;2023-01-10T03:31:30;10.80;48.60
2783;DHT22;1399;47.072;15.452;2023-01-10T03:33:56;10.80;48.30
2783;DHT22;1399;47.072;15.452;2023-01-10T03:36:26;10.80;48.60
2783;DHT22;1399;47.072;15.452;2023-01-10T03:39:15;10.80;48.30
2783;DHT22;1399;47.072;15.452;2023-01-10T03:41:46;10.80;47.90
2783;DHT22;1399;47.072;15.452;2023-01-10T03:44:19;10.80;47.50
2783;DHT22;1399;47.072;15.452;2023-01-10T03:49:32;10.80;46.70
2783;DHT22;1399;47.072;15.452;2023-01-10T03:52:01;10.80;47.20
2783;DHT22;1399;47.072;15.452;2023-01-10T03:54:28;10.80;46.70
2783;DHT22;1399;47.072;15.452;2023-01-10T03:56:54;10.80;46.80
2783;DHT22;1399;47.072;15.452;2023-01-10T03:59:25;10.90;47.10
2783;DHT22;1399;47.072;15.452;2023-01-10T04:01:52;10.90;47.10
2783;DHT22;1399;47.072;15.452;2023-01-10T04:04:18;10.80;47.10
2783;DHT22;1399;47.072;15.452;2023-01-10T04:06:44;10.90;47.00
2783;DHT22;1399;47.072;15.452;2023-01-10T04:09:10;10.90;46.50
2783;DHT22;1399;47.072;15.452;2023-01-10T04:11:36;10.90;46.50
2783;DHT22;1399;47.072;15.452;2023-01-10T04:14:02;10.90;46.90
2783;DHT22;1399;47.072;15.452;2023-01-10T04:16:28;10.90;46.70
2783;DHT22;1399;47.072;15.452;2023-01-10T04:18:54;10.90;46.60
2783;DHT22;1399;47.072;15.452;2023-01-10T04:21:20;10.90;46.40
2783;DHT22;1399;47.072;15.452;2023-01-10T04:23:45;10.90;46.40
2783;DHT22;1399;47.072;15.452;2023-01-10T04:26:11;10.90;46.30
2783;DHT22;1399;47.072;15.452;2023-01-10T04:28:37;10.90;46.20
2783;DHT22;1399;47.072;15.452;2023-01-10T04:31:03;10.90;46.10
2783;DHT22;1399;47.072;15.452;2023-01-10T04:33:29;10.90;46.00
2783;DHT22;1399;47.072;15.452;2023-01-10T04:35:55;11.00;46.10
2783;DHT22;1399;47.072;15.452;2023-01-10T04:38:21;11.00;46.00
2783;DHT22;1399;47.072;15.452;2023-01-10T04:40:56;11.00;45.60
2783;DHT22;1399;47.072;15.452;2023-01-10T04:43:23;11.00;45.10
2783;DHT22;1399;47.072;15.452;2023-01-10T04:45:49;11.00;45.00
2783;DHT22;1399;47.072;15.452;2023-01-10T04:48:15;11.00;45.00
2783;DHT22;1399;47.072;15.452;2023-01-10T04:50:41;11.00;45.20
2783;DHT22;1399;47.072;15.452;2023-01-10T04:53:07;11.00;45.20
2783;DHT22;1399;47.072;15.452;2023-01-10T04:55:33;11.00;45.20
2783;DHT22;1399;47.072;15.452;2023-01-10T04:58:01;11.00;45.30
2783;DHT22;1399;47.072;15.452;2023-01-10T05:00:27;11.00;44.90
2783;DHT22;1399;47.072;15.452;2023-01-10T05:02:56;11.00;44.40
2783;DHT22;1399;47.072;15.452;2023-01-10T05:05:23;11.00;44.30
2783;DHT22;1399;47.072;15.452;2023-01-10T05:07:48;11.00;44.30
2783;DHT22;1399;47.072;15.452;2023-01-10T05:10:14;11.00;44.10
2783;DHT22;1399;47.072;15.452;2023-01-10T05:12:40;11.00;43.80
2783;DHT22;1399;47.072;15.452;2023-01-10T05:15:07;11.00;43.60
2783;DHT22;1399;47.072;15.452;2023-01-10T05:17:32;11.00;43.50
2783;DHT22;1399;47.072;15.452;2023-01-10T05:19:58;11.00;43.80
2783;DHT22;1399;47.072;15.452;2023-01-10T05:22:24;11.00;43.60
2783;DHT22;1399;47.072;15.452;2023-01-10T05:24:50;11.00;43.60
2783;DHT22;1399;47.072;15.452;2023-01-10T05:27:16;11.00;43.60
2783;DHT22;1399;47.072;15.452;2023-01-10T05:29:41;11.00;43.10
2783;DHT22;1399;47.072;15.452;2023-01-10T05:32:07;11.00;43.20
2783;DHT22;1399;47.072;15.452;2023-01-10T05:34:33;11.00;42.80
2783;DHT22;1399;47.072;15.452;2023-01-10T05:36:59;11.00;43.00
2783;DHT22;1399;47.072;15.452;2023-01-10T05:39:25;11.10;43.10
2783;DHT22;1399;47.072;15.452;2023-01-10T05:41:50;11.00;42.90
2783;DHT22;1399;47.072;15.452;2023-01-10T05:44:16;11.00;43.00
2783;DHT22;1399;47.072;15.452;2023-01-10T05:46:42;11.00;42.90
2783;DHT22;1399;47.072;15.452;2023-01-10T05:49:08;11.00;43.10
2783;DHT22;1399;47.072;15.452;2023-01-10T05:51:33;11.10;42.40
2783;DHT22;1399;47.072;15.452;2023-01-10T05:54:00;11.10;43.00
2783;DHT22;1399;47.072;15.452;2023-01-10T05:56:25;11.00;42.00
2783;DHT22;1399;47.072;15.452;2023-01-10T05:58:51;11.00;41.80
2783;DHT22;1399;47.072;15.452;2023-01-10T06:01:17;11.00;42.50
2783;DHT22;1399;47.072;15.452;2023-01-10T06:03:43;11.00;41.50
2783;DHT22;1399;47.072;15.452;2023-01-10T06:06:24;11.00;41.50
2783;DHT22;1399;47.072;15.452;2023-01-10T06:08:50;11.00;41.60
2783;DHT22;1399;47.072;15.452;2023-01-10T06:11:16;11.00;41.40
2783;DHT22;1399;47.072;15.452;2023-01-10T06:13:41;11.00;41.50
2783;DHT22;1399;47.072;15.452;2023-01-10T06:16:07;11.10;41.70
2783;DHT22;1399;47.072;15.452;2023-01-10T06:18:33;11.10;41.80
2783;DHT22;1399;47.072;15.452;2023-01-10T06:20:58;11.10;41.90
2783;DHT22;1399;47.072;15.452;2023-01-10T06:23:24;11.10;41.90
2783;DHT22;1399;47.072;15.452;2023-01-10T06:25:50;11.10;42.00
2783;DHT22;1399;47.072;15.452;2023-01-10T06:28:16;11.10;42.10
2783;DHT22;1399;47.072;15.452;2023-01-10T06:30:41;11.10;42.00
2783;DHT22;1399;47.072;15.452;2023-01-10T06:33:09;11.10;42.00
2783;DHT22;1399;47.072;15.452;2023-01-10T06:35:35;11.10;42.20
2783;DHT22;1399;47.072;15.452;2023-01-10T06:38:01;11.10;42.50
2783;DHT22;1399;47.072;15.452;2023-01-10T06:40:28;11.10;42.50
2783;DHT22;1399;47.072;15.452;2023-01-10T06:42:54;11.10;42.40
2783;DHT22;1399;47.072;15.452;2023-01-10T06:45:20;11.10;42.30
2783;DHT22;1399;47.072;15.452;2023-01-10T06:47:46;11.10;42.00
2783;DHT22;1399;47.072;15.452;2023-01-10T06:50:12;11.10;42.10
2783;DHT22;1399;47.072;15.452;2023-01-10T06:52:38;11.10;42.20
2783;DHT22;1399;47.072;15.452;2023-01-10T06:55:05;11.10;42.30
2783;DHT22;1399;47.072;15.452;2023-01-10T06:57:32;11.10;42.20
2783;DHT22;1399;47.072;15.452;2023-01-10T07:00:07;11.10;42.40
2783;DHT22;1399;47.072;15.452;2023-01-10T07:02:35;11.10;42.50
2783;DHT22;1399;47.072;15.452;2023-01-10T07:05:01;11.20;42.70
2783;DHT22;1399;47.072;15.452;2023-01-10T07:07:27;11.20;42.60
2783;DHT22;1399;47.072;15.452;2023-01-10T07:09:53;11.20;43.20
2783;DHT22;1399;47.072;15.452;2023-01-10T07:12:18;11.20;42.40
2783;DHT22;1399;47.072;15.452;2023-01-10T07:14:44;11.20;42.60
2783;DHT22;1399;47.072;15.452;2023-01-10T07:17:10;11.20;42.70
2783;DHT22;1399;47.072;15.452;2023-01-10T07:19:35;11.20;42.50
2783;DHT22;1399;47.072;15.452;2023-01-10T07:22:01;11.20;42.40
2783;DHT22;1399;47.072;15.452;2023-01-10T07:24:28;11.20;42.40
2783;DHT22;1399;47.072;15.452;2023-01-10T07:26:54;11.20;42.50
2783;DHT22;1399;47.072;15.452;2023-01-10T07:29:20;11.20;42.50
2783;DHT22;1399;47.072;15.452;2023-01-10T07:31:46;11.20;42.60
2783;DHT22;1399;47.072;15.452;2023-01-10T07:34:12;11.20;42.80
2783;DHT22;1399;47.072;15.452;2023-01-10T07:36:38;11.20;42.70
2783;DHT22;1399;47.072;15.452;2023-01-10T07:39:04;11.20;42.60
2783;DHT22;1399;47.072;15.452;2023-01-10T07:41:29;11.20;42.60
2783;DHT22;1399;47.072;15.452;2023-01-10T07:43:55;11.30;42.70
2783;DHT22;1399;47.072;15.452;2023-01-10T07:46:21;11.30;42.70
2783;DHT22;1399;47.072;15.452;2023-01-10T07:48:47;11.30;42.90
2783;DHT22;1399;47.072;15.452;2023-01-10T07:51:13;11.30;42.80
2783;DHT22;1399;47.072;15.452;2023-01-10T07:53:39;11.30;42.80
2783;DHT22;1399;47.072;15.452;2023-01-10T07:56:05;11.30;42.90
2783;DHT22;1399;47.072;15.452;2023-01-10T07:58:31;11.30;43.00
2783;DHT22;1399;47.072;15.452;2023-01-10T08:01:02;11.30;43.10
2783;DHT22;1399;47.072;15.452;2023-01-10T08:03:28;11.30;43.10
2783;DHT22;1399;47.072;15.452;2023-01-10T08:06:06;11.30;43.20
2783;DHT22;1399;47.072;15.452;2023-01-10T08:08:33;11.40;43.30
2783;DHT22;1399;47.072;15.452;2023-01-10T08:10:59;11.40;43.00
2783;DHT22;1399;47.072;15.452;2023-01-10T08:13:27;11.40;42.80
2783;DHT22;1399;47.072;15.452;2023-01-10T08:15:53;11.40;42.70
2783;DHT22;1399;47.072;15.452;2023-01-10T08:18:20;11.40;42.40
2783;DHT22;1399;47.072;15.452;2023-01-10T08:20:51;11.40;42.20
2783;DHT22;1399;47.072;15.452;2023-01-10T08:23:17;11.40;42.20
2783;DHT22;1399;47.072;15.452;2023-01-10T08:25:44;11.40;42.20
2783;DHT22;1399;47.072;15.452;2023-01-10T08:28:10;11.40;42.10
2783;DHT22;1399;47.072;15.452;2023-01-10T08:30:36;11.40;41.90
2783;DHT22;1399;47.072;15.452;2023-01-10T08:33:03;11.50;42.00
2783;DHT22;1399;47.072;15.452;2023-01-10T08:35:29;11.50;41.90
2783;DHT22;1399;47.072;15.452;2023-01-10T08:37:59;11.50;41.80
2783;DHT22;1399;47.072;15.452;2023-01-10T08:40:25;11.50;41.60
2783;DHT22;1399;47.072;15.452;2023-01-10T08:42:58;11.50;41.50
2783;DHT22;1399;47.072;15.452;2023-01-10T08:45:24;11.50;41.50
2783;DHT22;1399;47.072;15.452;2023-01-10T08:47:50;11.50;41.50
2783;DHT22;1399;47.072;15.452;2023-01-10T08:50:16;11.60;41.50
2783;DHT22;1399;47.072;15.452;2023-01-10T08:52:41;11.60;41.50
2783;DHT22;1399;47.072;15.452;2023-01-10T08:55:08;11.60;41.40
2783;DHT22;1399;47.072;15.452;2023-01-10T08:57:33;11.60;41.40
2783;DHT22;1399;47.072;15.452;2023-01-10T08:59:59;11.70;41.60
2783;DHT22;1399;47.072;15.452;2023-01-10T09:02:25;11.70;41.60
2783;DHT22;1399;47.072;15.452;2023-01-10T09:04:50;11.80;41.60
2783;DHT22;1399;47.072;15.452;2023-01-10T09:07:16;11.80;41.50
2783;DHT22;1399;47.072;15.452;2023-01-10T09:09:42;11.80;41.40
2783;DHT22;1399;47.072;15.452;2023-01-10T09:12:08;11.80;41.40
2783;DHT22;1399;47.072;15.452;2023-01-10T09:14:54;11.90;41.40
2783;DHT22;1399;47.072;15.452;2023-01-10T09:17:20;11.90;41.40
2783;DHT22;1399;47.072;15.452;2023-01-10T09:19:46;11.90;41.30
2783;DHT22;1399;47.072;15.452;2023-01-10T09:22:12;11.90;41.10
2783;DHT22;1399;47.072;15.452;2023-01-10T09:24:37;12.00;40.90
2783;DHT22;1399;47.072;15.452;2023-01-10T09:27:03;12.00;40.80
2783;DHT22;1399;47.072;15.452;2023-01-10T09:29:29;12.00;40.70
2783;DHT22;1399;47.072;15.452;2023-01-10T09:31:55;12.00;40.70
2783;DHT22;1399;47.072;15.452;2023-01-10T09:34:21;12.00;40.70
2783;DHT22;1399;47.072;15.452;2023-01-10T09:36:47;12.00;40.80
2783;DHT22;1399;47.072;15.452;2023-01-10T09:39:13;12.00;40.70
2783;DHT22;1399;47.072;15.452;2023-01-10T09:45:20;12.10;40.90
2783;DHT22;1399;47.072;15.452;2023-01-10T09:47:52;12.10;40.80
2783;DHT22;1399;47.072;15.452;2023-01-10T09:50:32;12.10;40.70
2783;DHT22;1399;47.072;15.452;2023-01-10T09:53:21;12.10;40.70
2783;DHT22;1399;47.072;15.452;2023-01-10T09:55:54;12.20;40.80
2783;DHT22;1399;47.072;15.452;2023-01-10T09:58:24;12.20;40.90
2783;DHT22;1399;47.072;15.452;2023-01-10T10:00:59;12.20;40.90
2783;DHT22;1399;47.072;15.452;2023-01-10T10:03:59;12.20;40.60
2783;DHT22;1399;47.072;15.452;2023-01-10T10:06:26;12.30;40.50
2783;DHT22;1399;47.072;15.452;2023-01-10T10:08:52;12.30;40.30
2783;DHT22;1399;47.072;15.452;2023-01-10T10:17:52;12.30;40.00
2783;DHT22;1399;47.072;15.452;2023-01-10T10:20:28;12.30;40.00
2783;DHT22;1399;47.072;15.452;2023-01-10T10:31:48;12.30;39.90
2783;DHT22;1399;47.072;15.452;2023-01-10T10:34:45;12.40;39.90
2783;DHT22;1399;47.072;15.452;2023-01-10T10:37:16;12.40;39.40
2783;DHT22;1399;47.072;15.452;2023-01-10T10:40:02;12.40;39.20
2783;DHT22;1399;47.072;15.452;2023-01-10T10:42:33;12.40;39.20
2783;DHT22;1399;47.072;15.452;2023-01-10T10:45:16;12.40;39.00
2783;DHT22;1399;47.072;15.452;2023-01-10T10:47:45;12.40;38.70
2783;DHT22;1399;47.072;15.452;2023-01-10T10:50:20;12.40;38.70
2783;DHT22;1399;47.072;15.452;2023-01-10T10:52:48;12.40;38.70
2783;DHT22;1399;47.072;15.452;2023-01-10T10:55:24;12.40;38.80
2783;DHT22;1399;47.072;15.452;2023-01-10T10:57:53;12.40;39.00
2783;DHT22;1399;47.072;15.452;2023-01-10T11:00:21;12.40;39.00
2783;DHT22;1399;47.072;15.452;2023-01-10T11:02:52;12.40;39.00
2783;DHT22;1399;47.072;15.452;2023-01-10T11:05:22;12.40;39.00
2783;DHT22;1399;47.072;15.452;2023-01-10T11:07:52;12.40;39.10
2783;DHT22;1399;47.072;15.452;2023-01-10T11:10:22;12.40;39.20
2783;DHT22;1399;47.072;15.452;2023-01-10T11:13:39;12.40;39.20
2783;DHT22;1399;47.072;15.452;2023-01-10T11:16:04;12.40;39.10
2783;DHT22;1399;47.072;15.452;2023-01-10T11:18:31;12.40;38.80
2783;DHT22;1399;47.072;15.452;2023-01-10T11:23:51;12.40;38.60
2783;DHT22;1399;47.072;15.452;2023-01-10T11:26:29;12.40;38.70
2783;DHT22;1399;47.072;15.452;2023-01-10T11:31:55;12.40;38.80
2783;DHT22;1399;47.072;15.452;2023-01-10T11:34:28;12.40;38.70
2783;DHT22;1399;47.072;15.452;2023-01-10T11:37:01;12.40;38.50
2783;DHT22;1399;47.072;15.452;2023-01-10T11:39:28;12.40;38.50
2783;DHT22;1399;47.072;15.452;2023-01-10T11:41:55;12.40;38.60
2783;DHT22;1399;47.072;15.452;2023-01-10T11:46:50;12.40;38.50
2783;DHT22;1399;47.072;15.452;2023-01-10T11:49:35;12.50;38.50
2783;DHT22;1399;47.072;15.452;2023-01-10T11:54:42;12.50;38.40
2783;DHT22;1399;47.072;15.452;2023-01-10T11:57:14;12.50;38.20
2783;DHT22;1399;47.072;15.452;2023-01-10T11:59:55;12.50;38.10
2783;DHT22;1399;47.072;15.452;2023-01-10T12:02:36;12.50;38.10
2783;DHT22;1399;47.072;15.452;2023-01-10T12:05:08;12.50;38.00
2783;DHT22;1399;47.072;15.452;2023-01-10T12:08:21;12.50;37.90
2783;DHT22;1399;47.072;15.452;2023-01-10T12:11:00;12.50;37.90
2783;DHT22;1399;47.072;15.452;2023-01-10T12:13:28;12.50;37.80
2783;DHT22;1399;47.072;15.452;2023-01-10T12:18:39;12.50;37.90
2783;DHT22;1399;47.072;15.452;2023-01-10T12:21:06;12.50;37.70
2783;DHT22;1399;47.072;15.452;2023-01-10T12:23:33;12.50;37.50
2783;DHT22;1399;47.072;15.452;2023-01-10T12:26:06;12.50;37.30
2783;DHT22;1399;47.072;15.452;2023-01-10T12:28:34;12.50;37.10
2783;DHT22;1399;47.072;15.452;2023-01-10T12:31:01;12.50;37.00
2783;DHT22;1399;47.072;15.452;2023-01-10T12:33:41;12.50;37.10
2783;DHT22;1399;47.072;15.452;2023-01-10T12:39:14;12.50;36.90
2783;DHT22;1399;47.072;15.452;2023-01-10T12:45:15;12.50;36.90
2783;DHT22;1399;47.072;15.452;2023-01-10T12:50:57;12.40;36.80
2783;DHT22;1399;47.072;15.452;2023-01-10T12:55:56;12.40;36.80
2783;DHT22;1399;47.072;15.452;2023-01-10T12:58:33;12.40;36.80
2783;DHT22;1399;47.072;15.452;2023-01-10T13:01:01;12.40;36.70
2783;DHT22;1399;47.072;15.452;2023-01-10T13:03:30;12.40;36.80
2783;DHT22;1399;47.072;15.452;2023-01-10T13:05:57;12.40;36.90
2783;DHT22;1399;47.072;15.452;2023-01-10T13:08:30;12.50;36.90
2783;DHT22;1399;47.072;15.452;2023-01-10T13:10:58;12.40;36.90
2783;DHT22;1399;47.072;15.452;2023-01-10T13:13:36;12.50;37.10
2783;DHT22;1399;47.072;15.452;2023-01-10T13:21:31;12.40;37.20
2783;DHT22;1399;47.072;15.452;2023-01-10T13:24:03;12.40;37.30
2783;DHT22;1399;47.072;15.452;2023-01-10T13:26:56;12.40;37.80
2783;DHT22;1399;47.072;15.452;2023-01-10T13:31:50;12.40;37.60
2783;DHT22;1399;47.072;15.452;2023-01-10T13:34:32;12.40;37.60
2783;DHT22;1399;47.072;15.452;2023-01-10T13:37:11;12.40;37.70
2783;DHT22;1399;47.072;15.452;2023-01-10T13:39:40;12.40;37.70
2783;DHT22;1399;47.072;15.452;2023-01-10T13:42:22;12.40;37.60
2783;DHT22;1399;47.072;15.452;2023-01-10T14:00:41;12.30;37.40
2783;DHT22;1399;47.072;15.452;2023-01-10T14:03:54;12.30;37.40
2783;DHT22;1399;47.072;15.452;2023-01-10T14:08:57;12.20;38.00
2783;DHT22;1399;47.072;15.452;2023-01-10T14:11:29;12.20;37.40
2783;DHT22;1399;47.072;15.452;2023-01-10T14:14:00;12.20;37.50
2783;DHT22;1399;47.072;15.452;2023-01-10T14:18:52;12.20;37.80
2783;DHT22;1399;47.072;15.452;2023-01-10T14:21:23;12.10;37.80
2783;DHT22;1399;47.072;15.452;2023-01-10T14:23:51;12.10;37.70
2783;DHT22;1399;47.072;15.452;2023-01-10T14:26:34;12.10;37.80
2783;DHT22;1399;47.072;15.452;2023-01-10T14:29:10;12.10;37.90
2783;DHT22;1399;47.072;15.452;2023-01-10T14:31:44;12.00;37.90
2783;DHT22;1399;47.072;15.452;2023-01-10T14:34:22;12.00;38.10
2783;DHT22;1399;47.072;15.452;2023-01-10T14:36:56;12.00;38.20
2783;DHT22;1399;47.072;15.452;2023-01-10T14:39:22;12.00;38.30
2783;DHT22;1399;47.072;15.452;2023-01-10T14:41:55;12.00;38.30
2783;DHT22;1399;47.072;15.452;2023-01-10T14:44:47;11.90;38.20
2783;DHT22;1399;47.072;15.452;2023-01-10T14:49:55;11.90;38.20
2783;DHT22;1399;47.072;15.452;2023-01-10T14:52:28;11.90;38.20
2783;DHT22;1399;47.072;15.452;2023-01-10T14:55:10;11.90;38.20
2783;DHT22;1399;47.072;15.452;2023-01-10T14:57:36;11.80;38.10
2783;DHT22;1399;47.072;15.452;2023-01-10T15:02:33;11.80;38.40
2783;DHT22;1399;47.072;15.452;2023-01-10T15:07:34;11.80;38.60
2783;DHT22;1399;47.072;15.452;2023-01-10T15:10:02;11.70;38.70
2783;DHT22;1399;47.072;15.452;2023-01-10T15:12:36;11.70;38.80
2783;DHT22;1399;47.072;15.452;2023-01-10T15:15:12;11.70;38.80
2783;DHT22;1399;47.072;15.452;2023-01-10T15:17:40;11.70;38.80
2783;DHT22;1399;47.072;15.452;2023-01-10T15:20:08;11.60;38.70
2783;DHT22;1399;47.072;15.452;2023-01-10T15:22:38;11.60;38.70
2783;DHT22;1399;47.072;15.452;2023-01-10T15:25:23;11.60;38.70
2783;DHT22;1399;47.072;15.452;2023-01-10T15:27:52;11.50;38.80
2783;DHT22;1399;47.072;15.452;2023-01-10T15:30:24;11.50;38.90
2783;DHT22;1399;47.072;15.452;2023-01-10T15:32:53;11.50;39.00
2783;DHT22;1399;47.072;15.452;2023-01-10T15:35:22;11.50;39.00
2783;DHT22;1399;47.072;15.452;2023-01-10T15:37:53;11.50;39.00
2783;DHT22;1399;47.072;15.452;2023-01-10T15:40:22;11.40;39.00
2783;DHT22;1399;47.072;15.452;2023-01-10T15:42:48;11.40;39.10
2783;DHT22;1399;47.072;15.452;2023-01-10T15:45:32;11.40;39.10
2783;DHT22;1399;47.072;15.452;2023-01-10T15:48:03;11.40;39.00
2783;DHT22;1399;47.072;15.452;2023-01-10T15:50:36;11.40;39.00
2783;DHT22;1399;47.072;15.452;2023-01-10T15:53:09;11.40;39.00
2783;DHT22;1399;47.072;15.452;2023-01-10T15:58:25;11.30;39.00
2783;DHT22;1399;47.072;15.452;2023-01-10T16:00:53;11.30;39.00
2783;DHT22;1399;47.072;15.452;2023-01-10T16:03:34;11.30;39.10
2783;DHT22;1399;47.072;15.452;2023-01-10T16:06:02;11.40;39.30
2783;DHT22;1399;47.072;15.452;2023-01-10T16:08:33;11.40;39.40
2783;DHT22;1399;47.072;15.452;2023-01-10T16:11:04;11.40;39.50
2783;DHT22;1399;47.072;15.452;2023-01-10T16:13:31;11.30;39.50
2783;DHT22;1399;47.072;15.452;2023-01-10T16:16:00;11.40;39.70
2783;DHT22;1399;47.072;15.452;2023-01-10T16:18:30;11.40;39.80
2783;DHT22;1399;47.072;15.452;2023-01-10T16:21:00;11.40;39.90
2783;DHT22;1399;47.072;15.452;2023-01-10T16:23:31;11.30;39.80
2783;DHT22;1399;47.072;15.452;2023-01-10T16:26:00;11.30;39.90
2783;DHT22;1399;47.072;15.452;2023-01-10T16:28:27;11.30;40.00
2783;DHT22;1399;47.072;15.452;2023-01-10T16:30:55;11.30;40.00
2783;DHT22;1399;47.072;15.452;2023-01-10T16:33:25;11.30;40.60
2783;DHT22;1399;47.072;15.452;2023-01-10T16:35:57;11.30;40.10
2783;DHT22;1399;47.072;15.452;2023-01-10T16:38:25;11.30;40.10
2783;DHT22;1399;47.072;15.452;2023-01-10T16:41:02;11.30;40.10
2783;DHT22;1399;47.072;15.452;2023-01-10T16:43:49;11.30;40.70
2783;DHT22;1399;47.072;15.452;2023-01-10T16:46:14;11.30;39.80
2783;DHT22;1399;47.072;15.452;2023-01-10T16:48:40;11.30;39.70
2783;DHT22;1399;47.072;15.452;2023-01-10T16:51:32;11.30;39.60
2783;DHT22;1399;47.072;15.452;2023-01-10T16:53:58;11.20;39.20
2783;DHT22;1399;47.072;15.452;2023-01-10T16:56:27;11.20;39.00
2783;DHT22;1399;47.072;15.452;2023-01-10T16:58:53;11.20;38.90
2783;DHT22;1399;47.072;15.452;2023-01-10T17:01:34;11.20;38.90
2783;DHT22;1399;47.072;15.452;2023-01-10T17:04:00;11.10;38.80
2783;DHT22;1399;47.072;15.452;2023-01-10T17:06:26;11.10;38.80
2783;DHT22;1399;47.072;15.452;2023-01-10T17:08:53;11.10;38.80
2783;DHT22;1399;47.072;15.452;2023-01-10T17:11:21;11.10;38.90
2783;DHT22;1399;47.072;15.452;2023-01-10T17:13:49;11.10;38.80
2783;DHT22;1399;47.072;15.452;2023-01-10T17:16:15;11.10;38.80
2783;DHT22;1399;47.072;15.452;2023-01-10T17:18:41;11.10;38.80
2783;DHT22;1399;47.072;15.452;2023-01-10T17:21:13;11.10;38.80
2783;DHT22;1399;47.072;15.452;2023-01-10T17:23:41;11.10;38.80
2783;DHT22;1399;47.072;15.452;2023-01-10T17:26:07;11.00;38.80
2783;DHT22;1399;47.072;15.452;2023-01-10T17:28:33;11.00;38.80
2783;DHT22;1399;47.072;15.452;2023-01-10T17:30:59;11.00;38.80
2783;DHT22;1399;47.072;15.452;2023-01-10T17:33:25;11.00;38.80
2783;DHT22;1399;47.072;15.452;2023-01-10T17:35:55;11.00;38.70
2783;DHT22;1399;47.072;15.452;2023-01-10T17:38:23;11.00;38.80
2783;DHT22;1399;47.072;15.452;2023-01-10T17:40:50;11.00;38.70
2783;DHT22;1399;47.072;15.452;2023-01-10T17:43:17;11.00;38.80
2783;DHT22;1399;47.072;15.452;2023-01-10T17:45:45;11.00;38.70
2783;DHT22;1399;47.072;15.452;2023-01-10T17:48:13;11.00;38.70
2783;DHT22;1399;47.072;15.452;2023-01-10T17:50:45;11.00;38.80
2783;DHT22;1399;47.072;15.452;2023-01-10T17:53:11;11.00;38.90
2783;DHT22;1399;47.072;15.452;2023-01-10T17:55:45;11.00;38.80
2783;DHT22;1399;47.072;15.452;2023-01-10T17:58:12;10.90;38.70
2783;DHT22;1399;47.072;15.452;2023-01-10T18:00:38;11.00;38.90